Details From EKVG - Vagar
To BIHN - Hornafjordur
Flight Number -
Tags decoded
Created
Modified
Stats Distance 272 nm / 504 km
Max Altitude 0 ft / 0 m
Waypoints 8
Social Downloads 2
Likes 0
Share VATSIM

Download

Looking for another format? Having issues loading an existing format? Contact us
Advertisement - Login to hide

Notes

Requested: EKVG MY LINDA ROSTI ING INGOG DENOK HN BIHN

Route

EKVG MY LINDA ROSTI INGOG DENOK HN BIHN

ID Type Via Altitude Latitude Longitude Leg Dist Tot Dist Heading (true) Name
O EKVG APT - 0 ft / 0 m 62.06358˚ -7.27704˚ - 0 nm - Vagar
MY NDB - 0 ft / 0 m 62.10694˚ -7.58778˚ 9 nm 9 nm 287° / 286° MYGGENES NDB
LINDA FIX - 0 ft / 0 m 62.62167˚ -10.00000˚ 73 nm 83 nm 296° / 294° -
ROSTI FIX - 0 ft / 0 m 63.40639˚ -14.11222˚ 121 nm 204 nm 295° / 291° -
INGOG FIX - 0 ft / 0 m 64.09306˚ -15.31167˚ 52 nm 256 nm 323° / 322° -
DENOK FIX - 0 ft / 0 m 64.12917˚ -15.14056˚ 4 nm 261 nm 64° / 64° -
HN NDB - 0 ft / 0 m 64.26908˚ -15.21342˚ 8 nm 270 nm 347° / 347° HORNAFJORDUR NDB
O BIHN APT - 0 ft / 0 m 64.29568˚ -15.22735˚ 1 nm 271 nm 347° / 347° Hornafjordur

Altitude Profile

Advertisement - Login to hide

Weather


0- 5 10 15 20 25 30 35+ Temperature / ° C

Clouds and Precipitation
Forecast for 2017-12-11 12:00 UTC. Updated 5 minutes ago

Ground ~20,000 ft ~40,000 ft Winds

EKVG

Details ICAO EKVG (FAE)
Name Vagar
Region Denmark / Faroe Islands
Timezone Atlantic/Faroe (UTC+0.0)
Stats Elevation 280 ft / 85 m (AMSL)
Location 62.063584° -7.277044°
Runways 1
Magnetic Variation 5.386° W

METAR

EKVG 111120Z AUTO 35021KT 9999NDV -SHRA BKN018/// 04/02 Q0996

Decode

TAF

Not found

Departure Runways

ID Width Length Bearing (true) Bearing (mag) Surface Threshold Offset Overrun Length
13 98 ft / 30 m 4,088 ft / 1,246 m 117.92° 123.31° Asphalt 0 ft / 0 m 197 ft / 60 m
31 98 ft / 30 m 4,088 ft / 1,246 m 297.94° 303.33° Asphalt 0 ft / 0 m 197 ft / 60 m

BIHN

Details ICAO BIHN (HFN)
Name Hornafjordur
Region Iceland
Timezone Atlantic/Reykjavik (UTC+0.0)
Stats Elevation 23 ft / 7 m (AMSL)
Location 64.295683° -15.227349°
Runways 1
Magnetic Variation 10.230° W

METAR

BIHN 111100Z 32004KT CAVOK M07/M11 Q1005

Decode

TAF

Not found

Destination Runways

ID Width Length Bearing (true) Bearing (mag) Surface Threshold Offset Overrun Length
18 98 ft / 30 m 4,926 ft / 1,501 m 167.21° 177.44° Asphalt 0 ft / 0 m 0 ft / 0 m
36 98 ft / 30 m 4,926 ft / 1,501 m 347.21° 357.44° Asphalt 0 ft / 0 m 0 ft / 0 m

Popular Alternatives